Aviation Digital Data Service (ADDS)

Output produced by METARs form (0051 UTC 23 March 2019)
found at http://www.aviationweather.gov/metar/data/
 
METAR text: RJNK 230000Z 04007KT 9999 FEW030 SCT050 BKN180 07/M04 Q1018
Conditions at: RJNK (KOMATSU (CIV/JAS, JP) observed 0000 UTC 23 March 2019
Temperature: 7.0°C (45°F)
Dewpoint: -4.0°C (25°F) [RH = 45%]
Pressure (altimeter): 30.06 inches Hg (1018.0 mb)
Winds: from the NE (40 degrees) at 8 MPH (7 knots; 3.6 m/s)
Visibility: 6 or more miles (10+ km)
Ceiling: 18000 feet AGL
Clouds: few clouds at 3000 feet AGL
scattered clouds at 5000 feet AGL
broken clouds at 18000 feet AGL
Weather: no significant weather observed at this time

METAR text: RJNK 222300Z 11006KT 9999 FEW030 SCT180 BKN230 06/M02 Q1017
Conditions at: RJNK (KOMATSU (CIV/JAS, JP) observed 2300 UTC 22 March 2019
Temperature: 6.0°C (43°F)
Dewpoint: -2.0°C (28°F) [RH = 56%]
Pressure (altimeter): 30.03 inches Hg (1017.0 mb)
Winds: from the ESE (110 degrees) at 7 MPH (6 knots; 3.1 m/s)
Visibility: 6 or more miles (10+ km)
Ceiling: 23000 feet AGL
Clouds: few clouds at 3000 feet AGL
scattered clouds at 18000 feet AGL
broken clouds at 23000 feet AGL
Weather: no significant weather observed at this time

METAR text: RJNK 222200Z 36006KT 330V030 9999 FEW030 BKN050 BKN250 06/M05 Q1018
Conditions at: RJNK (KOMATSU (CIV/JAS, JP) observed 2200 UTC 22 March 2019
Temperature: 6.0°C (43°F)
Dewpoint: -5.0°C (23°F) [RH = 45%]
Pressure (altimeter): 30.06 inches Hg (1018.0 mb)
Winds: from the N (360 degrees) at 7 MPH (6 knots; 3.1 m/s)
Visibility: 6 or more miles (10+ km)
Ceiling: 5000 feet AGL
Clouds: few clouds at 3000 feet AGL
broken clouds at 5000 feet AGL
broken clouds at 25000 feet AGL
Weather: no significant weather observed at this time

METAR text: RJNK 222100Z 34007KT 9999 FEW030 SCT050 BKN250 05/M06 Q1017
Conditions at: RJNK (KOMATSU (CIV/JAS, JP) observed 2100 UTC 22 March 2019
Temperature: 5.0°C (41°F)
Dewpoint: -6.0°C (21°F) [RH = 45%]
Pressure (altimeter): 30.03 inches Hg (1017.0 mb)
Winds: from the NNW (340 degrees) at 8 MPH (7 knots; 3.6 m/s)
Visibility: 6 or more miles (10+ km)
Ceiling: 25000 feet AGL
Clouds: few clouds at 3000 feet AGL
scattered clouds at 5000 feet AGL
broken clouds at 25000 feet AGL
Weather: no significant weather observed at this time

METAR text: RJNK 222000Z 34011KT 9999 FEW030 BKN050 06/M06 Q1017
Conditions at: RJNK (KOMATSU (CIV/JAS, JP) observed 2000 UTC 22 March 2019
Temperature: 6.0°C (43°F)
Dewpoint: -6.0°C (21°F) [RH = 42%]
Pressure (altimeter): 30.03 inches Hg (1017.0 mb)
Winds: from the NNW (340 degrees) at 13 MPH (11 knots; 5.7 m/s)
Visibility: 6 or more miles (10+ km)
Ceiling: 5000 feet AGL
Clouds: few clouds at 3000 feet AGL
broken clouds at 5000 feet AGL
Weather: no significant weather observed at this time

METAR text: RJNK 221900Z 34012KT 310V010 9999 FEW030 BKN050 06/M04 Q1017
Conditions at: RJNK (KOMATSU (CIV/JAS, JP) observed 1900 UTC 22 March 2019
Temperature: 6.0°C (43°F)
Dewpoint: -4.0°C (25°F) [RH = 49%]
Pressure (altimeter): 30.03 inches Hg (1017.0 mb)
Winds: from the NNW (340 degrees) at 14 MPH (12 knots; 6.2 m/s)
Visibility: 6 or more miles (10+ km)
Ceiling: 5000 feet AGL
Clouds: few clouds at 3000 feet AGL
broken clouds at 5000 feet AGL
Weather: no significant weather observed at this time

METAR text: RJNK 221800Z 35011KT 9999 FEW020 SCT030 BKN050 06/M04 Q1017
Conditions at: RJNK (KOMATSU (CIV/JAS, JP) observed 1800 UTC 22 March 2019
Temperature: 6.0°C (43°F)
Dewpoint: -4.0°C (25°F) [RH = 49%]
Pressure (altimeter): 30.03 inches Hg (1017.0 mb)
Winds: from the N (350 degrees) at 13 MPH (11 knots; 5.7 m/s)
Visibility: 6 or more miles (10+ km)
Ceiling: 5000 feet AGL
Clouds: few clouds at 2000 feet AGL
scattered clouds at 3000 feet AGL
broken clouds at 5000 feet AGL
Weather: no significant weather observed at this time

METAR text: RJNK 221700Z 35012KT 9999 FEW020 BKN030 BKN050 06/M04 Q1017
Conditions at: RJNK (KOMATSU (CIV/JAS, JP) observed 1700 UTC 22 March 2019
Temperature: 6.0°C (43°F)
Dewpoint: -4.0°C (25°F) [RH = 49%]
Pressure (altimeter): 30.03 inches Hg (1017.0 mb)
Winds: from the N (350 degrees) at 14 MPH (12 knots; 6.2 m/s)
Visibility: 6 or more miles (10+ km)
Ceiling: 3000 feet AGL
Clouds: few clouds at 2000 feet AGL
broken clouds at 3000 feet AGL
broken clouds at 5000 feet AGL
Weather: no significant weather observed at this time

METAR text: RJNK 221600Z 34013KT 9999 FEW020 SCT030 BKN050 06/M05 Q1017
Conditions at: RJNK (KOMATSU (CIV/JAS, JP) observed 1600 UTC 22 March 2019
Temperature: 6.0°C (43°F)
Dewpoint: -5.0°C (23°F) [RH = 45%]
Pressure (altimeter): 30.03 inches Hg (1017.0 mb)
Winds: from the NNW (340 degrees) at 15 MPH (13 knots; 6.7 m/s)
Visibility: 6 or more miles (10+ km)
Ceiling: 5000 feet AGL
Clouds: few clouds at 2000 feet AGL
scattered clouds at 3000 feet AGL
broken clouds at 5000 feet AGL
Weather: no significant weather observed at this time

METAR text: RJNK 221500Z 35013KT 9999 -SHRA FEW020 BKN030 BKN050 06/M04 Q1017
Conditions at: RJNK (KOMATSU (CIV/JAS, JP) observed 1500 UTC 22 March 2019
Temperature: 6.0°C (43°F)
Dewpoint: -4.0°C (25°F) [RH = 49%]
Pressure (altimeter): 30.03 inches Hg (1017.0 mb)
Winds: from the N (350 degrees) at 15 MPH (13 knots; 6.7 m/s)
Visibility: 6 or more miles (10+ km)
Ceiling: 3000 feet AGL
Clouds: few clouds at 2000 feet AGL
broken clouds at 3000 feet AGL
broken clouds at 5000 feet AGL
Weather: -SHRA  (light rain showers)

METAR text: RJNK 221400Z 02007KT 340V040 9999 FEW030 BKN050 06/M04 Q1017
Conditions at: RJNK (KOMATSU (CIV/JAS, JP) observed 1400 UTC 22 March 2019
Temperature: 6.0°C (43°F)
Dewpoint: -4.0°C (25°F) [RH = 49%]
Pressure (altimeter): 30.03 inches Hg (1017.0 mb)
Winds: from the NNE (20 degrees) at 8 MPH (7 knots; 3.6 m/s)
Visibility: 6 or more miles (10+ km)
Ceiling: 5000 feet AGL
Clouds: few clouds at 3000 feet AGL
broken clouds at 5000 feet AGL
Weather: no significant weather observed at this time

METAR text: RJNK 221300Z 36010KT 9999 FEW030 BKN050 06/M05 Q1018
Conditions at: RJNK (KOMATSU (CIV/JAS, JP) observed 1300 UTC 22 March 2019
Temperature: 6.0°C (43°F)
Dewpoint: -5.0°C (23°F) [RH = 45%]
Pressure (altimeter): 30.06 inches Hg (1018.0 mb)
Winds: from the N (360 degrees) at 12 MPH (10 knots; 5.1 m/s)
Visibility: 6 or more miles (10+ km)
Ceiling: 5000 feet AGL
Clouds: few clouds at 3000 feet AGL
broken clouds at 5000 feet AGL
Weather: no significant weather observed at this time

METAR text: RJNK 221200Z 36011KT 9999 FEW020 BKN050 07/M05 Q1017
Conditions at: RJNK (KOMATSU (CIV/JAS, JP) observed 1200 UTC 22 March 2019
Temperature: 7.0°C (45°F)
Dewpoint: -5.0°C (23°F) [RH = 42%]
Pressure (altimeter): 30.03 inches Hg (1017.0 mb)
Winds: from the N (360 degrees) at 13 MPH (11 knots; 5.7 m/s)
Visibility: 6 or more miles (10+ km)
Ceiling: 5000 feet AGL
Clouds: few clouds at 2000 feet AGL
broken clouds at 5000 feet AGL
Weather: no significant weather observed at this time

METAR text: RJNK 221100Z 01008KT 9999 FEW020 SCT030 BKN050 06/M03 Q1016
Conditions at: RJNK (KOMATSU (CIV/JAS, JP) observed 1100 UTC 22 March 2019
Temperature: 6.0°C (43°F)
Dewpoint: -3.0°C (27°F) [RH = 52%]
Pressure (altimeter): 30.00 inches Hg (1016.0 mb)
Winds: from the N (10 degrees) at 9 MPH (8 knots; 4.1 m/s)
Visibility: 6 or more miles (10+ km)
Ceiling: 5000 feet AGL
Clouds: few clouds at 2000 feet AGL
scattered clouds at 3000 feet AGL
broken clouds at 5000 feet AGL
Weather: no significant weather observed at this time

METAR text: RJNK 221000Z 36011KT 9999 FEW020 BKN030 06/M02 Q1016
Conditions at: RJNK (KOMATSU (CIV/JAS, JP) observed 1000 UTC 22 March 2019
Temperature: 6.0°C (43°F)
Dewpoint: -2.0°C (28°F) [RH = 56%]
Pressure (altimeter): 30.00 inches Hg (1016.0 mb)
Winds: from the N (360 degrees) at 13 MPH (11 knots; 5.7 m/s)
Visibility: 6 or more miles (10+ km)
Ceiling: 3000 feet AGL
Clouds: few clouds at 2000 feet AGL
broken clouds at 3000 feet AGL
Weather: no significant weather observed at this time

METAR text: RJNK 220900Z 34010KT 9999 FEW020 SCT030 06/M03 Q1015
Conditions at: RJNK (KOMATSU (CIV/JAS, JP) observed 0900 UTC 22 March 2019
Temperature: 6.0°C (43°F)
Dewpoint: -3.0°C (27°F) [RH = 52%]
Pressure (altimeter): 29.97 inches Hg (1015.0 mb)
Winds: from the NNW (340 degrees) at 12 MPH (10 knots; 5.1 m/s)
Visibility: 6 or more miles (10+ km)
Ceiling: at least 12,000 feet AGL
Clouds: few clouds at 2000 feet AGL
scattered clouds at 3000 feet AGL
Weather: no significant weather observed at this time

METAR text: RJNK 220800Z 35011KT 9999 FEW015 BKN030 BKN050 08/M01 Q1015
Conditions at: RJNK (KOMATSU (CIV/JAS, JP) observed 0800 UTC 22 March 2019
Temperature: 8.0°C (46°F)
Dewpoint: -1.0°C (30°F) [RH = 53%]
Pressure (altimeter): 29.97 inches Hg (1015.0 mb)
Winds: from the N (350 degrees) at 13 MPH (11 knots; 5.7 m/s)
Visibility: 6 or more miles (10+ km)
Ceiling: 3000 feet AGL
Clouds: few clouds at 1500 feet AGL
broken clouds at 3000 feet AGL
broken clouds at 5000 feet AGL
Weather: no significant weather observed at this time

METAR text: RJNK 220700Z 35011KT 9999 FEW015 SCT020 BKN030 07/M00 Q1014
Conditions at: RJNK (KOMATSU (CIV/JAS, JP) observed 0700 UTC 22 March 2019
Temperature: 7.0°C (45°F)
Dewpoint: 0.0°C (32°F) [RH = 61%]
Pressure (altimeter): 29.94 inches Hg (1014.0 mb)
Winds: from the N (350 degrees) at 13 MPH (11 knots; 5.7 m/s)
Visibility: 6 or more miles (10+ km)
Ceiling: 3000 feet AGL
Clouds: few clouds at 1500 feet AGL
scattered clouds at 2000 feet AGL
broken clouds at 3000 feet AGL
Weather: no significant weather observed at this time

METAR text: RJNK 220600Z 35012KT 9999 FEW015 BKN020 BKN030 08/01 Q1014
Conditions at: RJNK (KOMATSU (CIV/JAS, JP) observed 0600 UTC 22 March 2019
Temperature: 8.0°C (46°F)
Dewpoint: 1.0°C (34°F) [RH = 61%]
Pressure (altimeter): 29.94 inches Hg (1014.0 mb)
Winds: from the N (350 degrees) at 14 MPH (12 knots; 6.2 m/s)
Visibility: 6 or more miles (10+ km)
Ceiling: 2000 feet AGL
Clouds: few clouds at 1500 feet AGL
broken clouds at 2000 feet AGL
broken clouds at 3000 feet AGL
Weather: no significant weather observed at this time

METAR text: RJNK 220500Z 36011KT 9999 FEW015 SCT020 BKN030 08/02 Q1013
Conditions at: RJNK (KOMATSU (CIV/JAS, JP) observed 0500 UTC 22 March 2019
Temperature: 8.0°C (46°F)
Dewpoint: 2.0°C (36°F) [RH = 66%]
Pressure (altimeter): 29.91 inches Hg (1013.0 mb)
Winds: from the N (360 degrees) at 13 MPH (11 knots; 5.7 m/s)
Visibility: 6 or more miles (10+ km)
Ceiling: 3000 feet AGL
Clouds: few clouds at 1500 feet AGL
scattered clouds at 2000 feet AGL
broken clouds at 3000 feet AGL
Weather: no significant weather observed at this time

METAR text: RJNK 220400Z 35011KT 9000 FEW015 BKN030 08/01 Q1013
Conditions at: RJNK (KOMATSU (CIV/JAS, JP) observed 0400 UTC 22 March 2019
Temperature: 8.0°C (46°F)
Dewpoint: 1.0°C (34°F) [RH = 61%]
Pressure (altimeter): 29.91 inches Hg (1013.0 mb)
Winds: from the N (350 degrees) at 13 MPH (11 knots; 5.7 m/s)
Visibility: 6 miles ( 9 km)
Ceiling: 3000 feet AGL
Clouds: few clouds at 1500 feet AGL
broken clouds at 3000 feet AGL
Weather: no significant weather observed at this time

METAR text: RJNK 220300Z 35009KT 9000 FEW015 SCT020 BKN030 09/02 Q1013
Conditions at: RJNK (KOMATSU (CIV/JAS, JP) observed 0300 UTC 22 March 2019
Temperature: 9.0°C (48°F)
Dewpoint: 2.0°C (36°F) [RH = 61%]
Pressure (altimeter): 29.91 inches Hg (1013.0 mb)
Winds: from the N (350 degrees) at 10 MPH (9 knots; 4.6 m/s)
Visibility: 6 miles ( 9 km)
Ceiling: 3000 feet AGL
Clouds: few clouds at 1500 feet AGL
scattered clouds at 2000 feet AGL
broken clouds at 3000 feet AGL
Weather: no significant weather observed at this time

METAR text: RJNK 220200Z 35008KT 9999 FEW015 SCT020 BKN030 09/01 Q1013
Conditions at: RJNK (KOMATSU (CIV/JAS, JP) observed 0200 UTC 22 March 2019
Temperature: 9.0°C (48°F)
Dewpoint: 1.0°C (34°F) [RH = 57%]
Pressure (altimeter): 29.91 inches Hg (1013.0 mb)
Winds: from the N (350 degrees) at 9 MPH (8 knots; 4.1 m/s)
Visibility: 6 or more miles (10+ km)
Ceiling: 3000 feet AGL
Clouds: few clouds at 1500 feet AGL
scattered clouds at 2000 feet AGL
broken clouds at 3000 feet AGL
Weather: no significant weather observed at this time

METAR text: RJNK 220100Z 35010KT 9999 FEW015 BKN020 BKN030 09/02 Q1013
Conditions at: RJNK (KOMATSU (CIV/JAS, JP) observed 0100 UTC 22 March 2019
Temperature: 9.0°C (48°F)
Dewpoint: 2.0°C (36°F) [RH = 61%]
Pressure (altimeter): 29.91 inches Hg (1013.0 mb)
Winds: from the N (350 degrees) at 12 MPH (10 knots; 5.1 m/s)
Visibility: 6 or more miles (10+ km)
Ceiling: 2000 feet AGL
Clouds: few clouds at 1500 feet AGL
broken clouds at 2000 feet AGL
broken clouds at 3000 feet AGL
Weather: no significant weather observed at this time

METAR text: RJNK 220000Z 36010KT 9999 FEW010 BKN030 09/04 Q1012
Conditions at: RJNK (KOMATSU (CIV/JAS, JP) observed 0000 UTC 22 March 2019
Temperature: 9.0°C (48°F)
Dewpoint: 4.0°C (39°F) [RH = 71%]
Pressure (altimeter): 29.88 inches Hg (1012.0 mb)
Winds: from the N (360 degrees) at 12 MPH (10 knots; 5.1 m/s)
Visibility: 6 or more miles (10+ km)
Ceiling: 3000 feet AGL
Clouds: few clouds at 1000 feet AGL
broken clouds at 3000 feet AGL
Weather: no significant weather observed at this time

METAR text: RJNK 212300Z 36013KT 9999 FEW010 SCT015 BKN030 09/05 Q1012
Conditions at: RJNK (KOMATSU (CIV/JAS, JP) observed 2300 UTC 21 March 2019
Temperature: 9.0°C (48°F)
Dewpoint: 5.0°C (41°F) [RH = 76%]
Pressure (altimeter): 29.88 inches Hg (1012.0 mb)
Winds: from the N (360 degrees) at 15 MPH (13 knots; 6.7 m/s)
Visibility: 6 or more miles (10+ km)
Ceiling: 3000 feet AGL
Clouds: few clouds at 1000 feet AGL
scattered clouds at 1500 feet AGL
broken clouds at 3000 feet AGL
Weather: no significant weather observed at this time

METAR text: RJNK 212200Z 35013KT 9999 -SHRA FEW010 BKN015 BKN030 10/06 Q1011
Conditions at: RJNK (KOMATSU (CIV/JAS, JP) observed 2200 UTC 21 March 2019
Temperature: 10.0°C (50°F)
Dewpoint: 6.0°C (43°F) [RH = 76%]
Pressure (altimeter): 29.85 inches Hg (1011.0 mb)
Winds: from the N (350 degrees) at 15 MPH (13 knots; 6.7 m/s)
Visibility: 6 or more miles (10+ km)
Ceiling: 1500 feet AGL
Clouds: few clouds at 1000 feet AGL
broken clouds at 1500 feet AGL
broken clouds at 3000 feet AGL
Weather: -SHRA  (light rain showers)

METAR text: RJNK 212100Z 01008KT 340V040 9000 -SHRA FEW010 BKN015 BKN030 10/07 Q1010
Conditions at: RJNK (KOMATSU (CIV/JAS, JP) observed 2100 UTC 21 March 2019
Temperature: 10.0°C (50°F)
Dewpoint: 7.0°C (45°F) [RH = 82%]
Pressure (altimeter): 29.82 inches Hg (1010.0 mb)
Winds: from the N (10 degrees) at 9 MPH (8 knots; 4.1 m/s)
Visibility: 6 miles ( 9 km)
Ceiling: 1500 feet AGL
Clouds: few clouds at 1000 feet AGL
broken clouds at 1500 feet AGL
broken clouds at 3000 feet AGL
Weather: -SHRA  (light rain showers)

METAR text: RJNK 212000Z 34014KT 9999 FEW010 BKN015 BKN030 11/06 Q1008
Conditions at: RJNK (KOMATSU (CIV/JAS, JP) observed 2000 UTC 21 March 2019
Temperature: 11.0°C (52°F)
Dewpoint: 6.0°C (43°F) [RH = 71%]
Pressure (altimeter): 29.76 inches Hg (1008.0 mb)
Winds: from the NNW (340 degrees) at 16 MPH (14 knots; 7.2 m/s)
Visibility: 6 or more miles (10+ km)
Ceiling: 1500 feet AGL
Clouds: few clouds at 1000 feet AGL
broken clouds at 1500 feet AGL
broken clouds at 3000 feet AGL
Weather: no significant weather observed at this time

METAR text: RJNK 211900Z 26010KT 9999 FEW010 SCT015 BKN030 13/10 Q1007
Conditions at: RJNK (KOMATSU (CIV/JAS, JP) observed 1900 UTC 21 March 2019
Temperature: 13.0°C (55°F)
Dewpoint: 10.0°C (50°F) [RH = 82%]
Pressure (altimeter): 29.73 inches Hg (1007.0 mb)
Winds: from the W (260 degrees) at 12 MPH (10 knots; 5.1 m/s)
Visibility: 6 or more miles (10+ km)
Ceiling: 3000 feet AGL
Clouds: few clouds at 1000 feet AGL
scattered clouds at 1500 feet AGL
broken clouds at 3000 feet AGL
Weather: no significant weather observed at this time

METAR text: RJNK 211800Z 24008KT 9999 FEW015 BKN050 14/11 Q1007
Conditions at: RJNK (KOMATSU (CIV/JAS, JP) observed 1800 UTC 21 March 2019
Temperature: 14.0°C (57°F)
Dewpoint: 11.0°C (52°F) [RH = 82%]
Pressure (altimeter): 29.73 inches Hg (1007.0 mb)
Winds: from the WSW (240 degrees) at 9 MPH (8 knots; 4.1 m/s)
Visibility: 6 or more miles (10+ km)
Ceiling: 5000 feet AGL
Clouds: few clouds at 1500 feet AGL
broken clouds at 5000 feet AGL
Weather: no significant weather observed at this time

METAR text: RJNK 211700Z 23006KT 9999 FEW015 SCT030 BKN050 14/12 Q1007
Conditions at: RJNK (KOMATSU (CIV/JAS, JP) observed 1700 UTC 21 March 2019
Temperature: 14.0°C (57°F)
Dewpoint: 12.0°C (54°F) [RH = 88%]
Pressure (altimeter): 29.73 inches Hg (1007.0 mb)
Winds: from the SW (230 degrees) at 7 MPH (6 knots; 3.1 m/s)
Visibility: 6 or more miles (10+ km)
Ceiling: 5000 feet AGL
Clouds: few clouds at 1500 feet AGL
scattered clouds at 3000 feet AGL
broken clouds at 5000 feet AGL
Weather: no significant weather observed at this time

METAR text: RJNK 211600Z 25011KT 9999 FEW010 SCT015 BKN030 14/12 Q1007
Conditions at: RJNK (KOMATSU (CIV/JAS, JP) observed 1600 UTC 21 March 2019
Temperature: 14.0°C (57°F)
Dewpoint: 12.0°C (54°F) [RH = 88%]
Pressure (altimeter): 29.73 inches Hg (1007.0 mb)
Winds: from the WSW (250 degrees) at 13 MPH (11 knots; 5.7 m/s)
Visibility: 6 or more miles (10+ km)
Ceiling: 3000 feet AGL
Clouds: few clouds at 1000 feet AGL
scattered clouds at 1500 feet AGL
broken clouds at 3000 feet AGL
Weather: no significant weather observed at this time

METAR text: RJNK 211500Z 23005KT 9999 FEW010 BKN015 BKN030 15/12 Q1006
Conditions at: RJNK (KOMATSU (CIV/JAS, JP) observed 1500 UTC 21 March 2019
Temperature: 15.0°C (59°F)
Dewpoint: 12.0°C (54°F) [RH = 82%]
Pressure (altimeter): 29.70 inches Hg (1006.0 mb)
Winds: from the SW (230 degrees) at 6 MPH (5 knots; 2.6 m/s)
Visibility: 6 or more miles (10+ km)
Ceiling: 1500 feet AGL
Clouds: few clouds at 1000 feet AGL
broken clouds at 1500 feet AGL
broken clouds at 3000 feet AGL
Weather: no significant weather observed at this time

METAR text: RJNK 211400Z 22006KT 9999 -SHRA FEW010 BKN015 BKN030 15/12 Q1006
Conditions at: RJNK (KOMATSU (CIV/JAS, JP) observed 1400 UTC 21 March 2019
Temperature: 15.0°C (59°F)
Dewpoint: 12.0°C (54°F) [RH = 82%]
Pressure (altimeter): 29.70 inches Hg (1006.0 mb)
Winds: from the SW (220 degrees) at 7 MPH (6 knots; 3.1 m/s)
Visibility: 6 or more miles (10+ km)
Ceiling: 1500 feet AGL
Clouds: few clouds at 1000 feet AGL
broken clouds at 1500 feet AGL
broken clouds at 3000 feet AGL
Weather: -SHRA  (light rain showers)

METAR text: RJNK 211300Z 25010KT 9999 FEW010 BKN015 BKN030 15/12 Q1007
Conditions at: RJNK (KOMATSU (CIV/JAS, JP) observed 1300 UTC 21 March 2019
Temperature: 15.0°C (59°F)
Dewpoint: 12.0°C (54°F) [RH = 82%]
Pressure (altimeter): 29.73 inches Hg (1007.0 mb)
Winds: from the WSW (250 degrees) at 12 MPH (10 knots; 5.1 m/s)
Visibility: 6 or more miles (10+ km)
Ceiling: 1500 feet AGL
Clouds: few clouds at 1000 feet AGL
broken clouds at 1500 feet AGL
broken clouds at 3000 feet AGL
Weather: no significant weather observed at this time

Forecast for: RJNK (KOMATSU (CIV/JAS, JP)
Text: TAF RJNK 222305Z 2300/2406 02006KT 9999 FEW020 BKN060
Forecast period: 0000 to 0500 UTC 23 March 2019
Forecast type: FROM: standard forecast or significant change
Winds: from the NNE (20 degrees) at 7 MPH (6 knots; 3.1 m/s)
Visibility: 6 or more miles 10+ km)
Ceiling: 6000 feet AGL
Clouds: few clouds at 2000 feet AGL
broken clouds at 6000 feet AGL
Weather: no significant weather forecast for this period
Text: BECMG 2305/2307 24006KT
Forecast period: 0500 to 1200 UTC 23 March 2019
Forecast type: BECOMING: Conditions expected to become as follows by 0700 UTC 23 March 2019
Winds: from the WSW (240 degrees) at 7 MPH (6 knots; 3.1 m/s)
Visibility: 6 or more miles 10+ km)
Ceiling: 6000 feet AGL
Clouds: few clouds at 2000 feet AGL
broken clouds at 6000 feet AGL
Weather: no significant weather forecast for this period
Text: BECMG 2312/2315 30012KT
Forecast period: 1200 to 2100 UTC 23 March 2019
Forecast type: BECOMING: Conditions expected to become as follows by 1500 UTC 23 March 2019
Winds: from the WNW (300 degrees) at 14 MPH (12 knots; 6.2 m/s)
Visibility: 6 or more miles 10+ km)
Ceiling: 6000 feet AGL
Clouds: few clouds at 2000 feet AGL
broken clouds at 6000 feet AGL
Weather: no significant weather forecast for this period
Text: TEMPO 2312/2318 4000 -TSRAGS BR FEW005 BKN008 FEW020CB
Forecast period: 1200 to 1800 UTC 23 March 2019
Forecast type: TEMPORARY: The following changes expected for less than half the time period
Visibility: 2.49 miles (4.01 km)
Ceiling: 800 feet AGL
Clouds: few clouds at 500 feet AGL
broken clouds at 800 feet AGL
few clouds at 2000 feet AGL
Weather: -TSRA -TSGS BR  (light rain associated with thunderstorm(s), unknown weather, mist)
Text: BECMG 2321/2400 34008KT
Forecast period: 2100 UTC 23 March 2019 to 0600 UTC 24 March 2019
Forecast type: BECOMING: Conditions expected to become as follows by 0000 UTC 24 March 2019
Winds: from the NNW (340 degrees) at 9 MPH (8 knots; 4.1 m/s)
Visibility: 6 or more miles 10+ km)
Ceiling: 6000 feet AGL
Clouds: few clouds at 2000 feet AGL
broken clouds at 6000 feet AGL
Weather: no significant weather forecast for this period